sensor_id;sensor_type;location;lat;lon;timestamp;P1;durP1;ratioP1;P2;durP2;ratioP2
62102;SDS011;48077;48.104;11.702;2023-08-21T00:01:58;28.67;;;26.00;;
62102;SDS011;48077;48.104;11.702;2023-08-21T00:07:41;30.75;;;28.02;;
62102;SDS011;48077;48.104;11.702;2023-08-21T00:10:06;35.90;;;32.55;;
62102;SDS011;48077;48.104;11.702;2023-08-21T00:12:30;33.25;;;30.33;;
62102;SDS011;48077;48.104;11.702;2023-08-21T00:14:53;34.67;;;31.60;;
62102;SDS011;48077;48.104;11.702;2023-08-21T00:17:17;36.05;;;32.75;;
62102;SDS011;48077;48.104;11.702;2023-08-21T00:19:40;34.65;;;31.58;;
62102;SDS011;48077;48.104;11.702;2023-08-21T00:22:06;34.97;;;31.73;;
62102;SDS011;48077;48.104;11.702;2023-08-21T00:24:29;33.28;;;30.30;;
62102;SDS011;48077;48.104;11.702;2023-08-21T00:26:53;36.45;;;33.05;;
62102;SDS011;48077;48.104;11.702;2023-08-21T00:29:16;30.77;;;28.00;;
62102;SDS011;48077;48.104;11.702;2023-08-21T00:31:39;35.70;;;32.28;;
62102;SDS011;48077;48.104;11.702;2023-08-21T00:34:03;32.50;;;29.52;;
62102;SDS011;48077;48.104;11.702;2023-08-21T00:36:26;33.28;;;30.45;;
62102;SDS011;48077;48.104;11.702;2023-08-21T00:38:49;31.80;;;29.02;;
62102;SDS011;48077;48.104;11.702;2023-08-21T00:41:13;30.27;;;27.70;;
62102;SDS011;48077;48.104;11.702;2023-08-21T00:43:36;31.98;;;29.23;;
62102;SDS011;48077;48.104;11.702;2023-08-21T00:46:00;34.50;;;31.60;;
62102;SDS011;48077;48.104;11.702;2023-08-21T00:48:23;35.10;;;31.88;;
62102;SDS011;48077;48.104;11.702;2023-08-21T00:50:47;34.63;;;31.50;;
62102;SDS011;48077;48.104;11.702;2023-08-21T00:53:11;32.65;;;29.63;;
62102;SDS011;48077;48.104;11.702;2023-08-21T00:55:35;32.83;;;29.83;;
62102;SDS011;48077;48.104;11.702;2023-08-21T00:58:00;32.33;;;29.27;;
62102;SDS011;48077;48.104;11.702;2023-08-21T01:00:28;33.22;;;30.30;;
62102;SDS011;48077;48.104;11.702;2023-08-21T01:02:51;32.42;;;29.48;;
62102;SDS011;48077;48.104;11.702;2023-08-21T01:05:17;32.55;;;29.35;;
62102;SDS011;48077;48.104;11.702;2023-08-21T01:07:47;39.85;;;36.33;;
62102;SDS011;48077;48.104;11.702;2023-08-21T01:10:19;35.00;;;31.92;;
62102;SDS011;48077;48.104;11.702;2023-08-21T01:12:56;34.28;;;31.35;;
62102;SDS011;48077;48.104;11.702;2023-08-21T01:15:29;35.72;;;32.63;;
62102;SDS011;48077;48.104;11.702;2023-08-21T01:17:53;39.50;;;36.08;;
62102;SDS011;48077;48.104;11.702;2023-08-21T01:20:17;32.30;;;29.42;;
62102;SDS011;48077;48.104;11.702;2023-08-21T01:22:42;34.75;;;31.63;;
62102;SDS011;48077;48.104;11.702;2023-08-21T01:25:12;35.15;;;31.98;;
62102;SDS011;48077;48.104;11.702;2023-08-21T01:27:35;35.92;;;32.67;;
62102;SDS011;48077;48.104;11.702;2023-08-21T01:30:00;34.83;;;31.65;;
62102;SDS011;48077;48.104;11.702;2023-08-21T01:34:55;37.75;;;34.38;;
62102;SDS011;48077;48.104;11.702;2023-08-21T01:37:20;33.80;;;30.83;;
62102;SDS011;48077;48.104;11.702;2023-08-21T01:39:44;38.15;;;34.92;;
62102;SDS011;48077;48.104;11.702;2023-08-21T01:42:07;36.20;;;33.13;;
62102;SDS011;48077;48.104;11.702;2023-08-21T01:44:30;38.85;;;35.35;;
62102;SDS011;48077;48.104;11.702;2023-08-21T01:46:56;38.03;;;34.75;;
62102;SDS011;48077;48.104;11.702;2023-08-21T01:49:19;35.83;;;32.67;;
62102;SDS011;48077;48.104;11.702;2023-08-21T01:51:43;38.90;;;35.28;;
62102;SDS011;48077;48.104;11.702;2023-08-21T01:54:06;42.58;;;38.85;;
62102;SDS011;48077;48.104;11.702;2023-08-21T01:56:29;38.17;;;34.83;;
62102;SDS011;48077;48.104;11.702;2023-08-21T01:58:55;37.00;;;33.75;;
62102;SDS011;48077;48.104;11.702;2023-08-21T02:07:57;50.13;;;45.92;;
62102;SDS011;48077;48.104;11.702;2023-08-21T02:10:20;47.42;;;43.13;;
62102;SDS011;48077;48.104;11.702;2023-08-21T02:12:44;38.05;;;34.70;;
62102;SDS011;48077;48.104;11.702;2023-08-21T02:15:07;41.97;;;38.38;;
62102;SDS011;48077;48.104;11.702;2023-08-21T02:17:31;41.95;;;38.38;;
62102;SDS011;48077;48.104;11.702;2023-08-21T02:19:55;35.97;;;32.80;;
62102;SDS011;48077;48.104;11.702;2023-08-21T02:22:18;42.88;;;39.28;;
62102;SDS011;48077;48.104;11.702;2023-08-21T02:24:42;35.25;;;32.38;;
62102;SDS011;48077;48.104;11.702;2023-08-21T02:27:05;41.90;;;38.33;;
62102;SDS011;48077;48.104;11.702;2023-08-21T02:29:28;39.83;;;36.15;;
62102;SDS011;48077;48.104;11.702;2023-08-21T02:31:52;42.60;;;38.88;;
62102;SDS011;48077;48.104;11.702;2023-08-21T02:34:15;42.03;;;38.67;;
62102;SDS011;48077;48.104;11.702;2023-08-21T02:36:38;40.30;;;36.70;;
62102;SDS011;48077;48.104;11.702;2023-08-21T02:39:02;41.50;;;38.05;;
62102;SDS011;48077;48.104;11.702;2023-08-21T02:41:26;39.90;;;36.38;;
62102;SDS011;48077;48.104;11.702;2023-08-21T02:43:50;40.42;;;36.75;;
62102;SDS011;48077;48.104;11.702;2023-08-21T02:46:13;40.95;;;37.33;;
62102;SDS011;48077;48.104;11.702;2023-08-21T02:48:37;44.65;;;40.83;;
62102;SDS011;48077;48.104;11.702;2023-08-21T02:51:00;41.42;;;38.03;;
62102;SDS011;48077;48.104;11.702;2023-08-21T02:53:25;44.38;;;40.70;;
62102;SDS011;48077;48.104;11.702;2023-08-21T02:55:48;38.08;;;34.88;;
62102;SDS011;48077;48.104;11.702;2023-08-21T02:58:12;44.47;;;40.65;;
62102;SDS011;48077;48.104;11.702;2023-08-21T03:00:35;42.70;;;38.70;;
62102;SDS011;48077;48.104;11.702;2023-08-21T03:02:59;39.88;;;36.53;;
62102;SDS011;48077;48.104;11.702;2023-08-21T03:05:22;40.78;;;37.42;;
62102;SDS011;48077;48.104;11.702;2023-08-21T03:07:45;44.00;;;40.35;;
62102;SDS011;48077;48.104;11.702;2023-08-21T03:10:09;42.70;;;39.17;;
62102;SDS011;48077;48.104;11.702;2023-08-21T03:12:33;45.80;;;41.72;;
62102;SDS011;48077;48.104;11.702;2023-08-21T03:14:56;43.83;;;40.22;;
62102;SDS011;48077;48.104;11.702;2023-08-21T03:17:19;47.22;;;43.00;;
62102;SDS011;48077;48.104;11.702;2023-08-21T03:19:43;43.50;;;39.42;;
62102;SDS011;48077;48.104;11.702;2023-08-21T03:22:06;49.45;;;45.33;;
62102;SDS011;48077;48.104;11.702;2023-08-21T03:24:30;46.67;;;42.83;;
62102;SDS011;48077;48.104;11.702;2023-08-21T03:26:53;47.17;;;43.20;;
62102;SDS011;48077;48.104;11.702;2023-08-21T03:29:16;54.63;;;49.53;;
62102;SDS011;48077;48.104;11.702;2023-08-21T03:31:40;47.50;;;43.40;;
62102;SDS011;48077;48.104;11.702;2023-08-21T03:34:03;47.38;;;43.25;;
62102;SDS011;48077;48.104;11.702;2023-08-21T03:36:26;52.78;;;48.25;;
62102;SDS011;48077;48.104;11.702;2023-08-21T03:38:57;54.13;;;49.53;;
62102;SDS011;48077;48.104;11.702;2023-08-21T03:41:23;51.28;;;46.92;;
62102;SDS011;48077;48.104;11.702;2023-08-21T03:43:47;50.40;;;45.58;;
62102;SDS011;48077;48.104;11.702;2023-08-21T03:46:10;54.28;;;49.28;;
62102;SDS011;48077;48.104;11.702;2023-08-21T03:48:33;51.60;;;47.08;;
62102;SDS011;48077;48.104;11.702;2023-08-21T03:50:57;52.45;;;47.92;;
62102;SDS011;48077;48.104;11.702;2023-08-21T03:53:20;51.42;;;47.08;;
62102;SDS011;48077;48.104;11.702;2023-08-21T03:55:43;46.40;;;42.63;;
62102;SDS011;48077;48.104;11.702;2023-08-21T03:58:07;50.00;;;45.55;;
62102;SDS011;48077;48.104;11.702;2023-08-21T04:00:30;48.45;;;44.20;;
62102;SDS011;48077;48.104;11.702;2023-08-21T04:02:54;51.38;;;47.13;;
62102;SDS011;48077;48.104;11.702;2023-08-21T04:05:17;54.03;;;49.20;;
62102;SDS011;48077;48.104;11.702;2023-08-21T04:07:40;52.35;;;47.97;;
62102;SDS011;48077;48.104;11.702;2023-08-21T04:10:04;52.30;;;47.78;;
62102;SDS011;48077;48.104;11.702;2023-08-21T04:12:27;53.38;;;48.88;;
62102;SDS011;48077;48.104;11.702;2023-08-21T04:14:51;48.50;;;44.40;;
62102;SDS011;48077;48.104;11.702;2023-08-21T04:17:15;50.40;;;46.10;;
62102;SDS011;48077;48.104;11.702;2023-08-21T04:19:43;52.20;;;47.80;;
62102;SDS011;48077;48.104;11.702;2023-08-21T04:22:07;49.90;;;45.33;;
62102;SDS011;48077;48.104;11.702;2023-08-21T04:24:30;51.90;;;47.60;;
62102;SDS011;48077;48.104;11.702;2023-08-21T04:26:53;54.83;;;50.25;;
62102;SDS011;48077;48.104;11.702;2023-08-21T04:29:17;49.90;;;45.50;;
62102;SDS011;48077;48.104;11.702;2023-08-21T04:31:40;51.55;;;47.15;;
62102;SDS011;48077;48.104;11.702;2023-08-21T04:34:03;56.03;;;50.40;;
62102;SDS011;48077;48.104;11.702;2023-08-21T04:36:27;56.83;;;51.83;;
62102;SDS011;48077;48.104;11.702;2023-08-21T04:38:50;57.88;;;52.65;;
62102;SDS011;48077;48.104;11.702;2023-08-21T04:41:13;54.13;;;49.38;;
62102;SDS011;48077;48.104;11.702;2023-08-21T04:43:37;57.60;;;52.53;;
62102;SDS011;48077;48.104;11.702;2023-08-21T04:46:00;54.55;;;49.58;;
62102;SDS011;48077;48.104;11.702;2023-08-21T04:48:24;61.83;;;56.20;;
62102;SDS011;48077;48.104;11.702;2023-08-21T04:50:47;56.28;;;51.42;;
62102;SDS011;48077;48.104;11.702;2023-08-21T04:53:11;54.50;;;49.70;;
62102;SDS011;48077;48.104;11.702;2023-08-21T04:55:34;54.40;;;49.83;;
62102;SDS011;48077;48.104;11.702;2023-08-21T04:57:59;54.05;;;49.33;;
62102;SDS011;48077;48.104;11.702;2023-08-21T05:00:23;56.00;;;51.17;;
62102;SDS011;48077;48.104;11.702;2023-08-21T05:02:46;55.33;;;50.63;;
62102;SDS011;48077;48.104;11.702;2023-08-21T05:05:09;57.38;;;52.47;;
62102;SDS011;48077;48.104;11.702;2023-08-21T05:07:33;56.88;;;52.00;;
62102;SDS011;48077;48.104;11.702;2023-08-21T05:10:00;52.15;;;47.55;;
62102;SDS011;48077;48.104;11.702;2023-08-21T05:12:24;48.70;;;44.65;;
62102;SDS011;48077;48.104;11.702;2023-08-21T05:14:49;53.72;;;49.00;;
62102;SDS011;48077;48.104;11.702;2023-08-21T05:17:12;50.72;;;46.38;;
62102;SDS011;48077;48.104;11.702;2023-08-21T05:19:35;50.55;;;46.28;;
62102;SDS011;48077;48.104;11.702;2023-08-21T05:21:59;45.92;;;42.05;;
62102;SDS011;48077;48.104;11.702;2023-08-21T05:24:22;50.35;;;46.05;;
62102;SDS011;48077;48.104;11.702;2023-08-21T05:26:45;50.85;;;46.45;;
62102;SDS011;48077;48.104;11.702;2023-08-21T05:29:09;44.90;;;41.08;;
62102;SDS011;48077;48.104;11.702;2023-08-21T05:31:32;46.90;;;42.97;;
62102;SDS011;48077;48.104;11.702;2023-08-21T05:33:58;46.42;;;42.55;;
62102;SDS011;48077;48.104;11.702;2023-08-21T05:36:21;40.25;;;36.90;;
62102;SDS011;48077;48.104;11.702;2023-08-21T05:38:45;37.55;;;34.47;;
62102;SDS011;48077;48.104;11.702;2023-08-21T05:41:11;39.08;;;35.78;;
62102;SDS011;48077;48.104;11.702;2023-08-21T05:43:34;35.80;;;32.65;;
62102;SDS011;48077;48.104;11.702;2023-08-21T05:45:57;39.20;;;35.85;;
62102;SDS011;48077;48.104;11.702;2023-08-21T05:48:21;40.75;;;37.33;;
62102;SDS011;48077;48.104;11.702;2023-08-21T05:50:44;33.92;;;30.92;;
62102;SDS011;48077;48.104;11.702;2023-08-21T05:53:07;36.60;;;33.33;;
62102;SDS011;48077;48.104;11.702;2023-08-21T05:55:31;32.78;;;29.48;;
62102;SDS011;48077;48.104;11.702;2023-08-21T05:57:55;28.08;;;25.50;;
62102;SDS011;48077;48.104;11.702;2023-08-21T06:00:18;29.63;;;26.77;;
62102;SDS011;48077;48.104;11.702;2023-08-21T06:02:42;22.98;;;20.92;;
62102;SDS011;48077;48.104;11.702;2023-08-21T06:05:06;24.30;;;21.95;;
62102;SDS011;48077;48.104;11.702;2023-08-21T06:07:29;27.80;;;24.98;;
62102;SDS011;48077;48.104;11.702;2023-08-21T06:09:53;23.15;;;20.98;;
62102;SDS011;48077;48.104;11.702;2023-08-21T06:12:16;20.58;;;18.65;;
62102;SDS011;48077;48.104;11.702;2023-08-21T06:14:39;21.63;;;19.42;;
62102;SDS011;48077;48.104;11.702;2023-08-21T06:17:03;18.25;;;16.35;;
62102;SDS011;48077;48.104;11.702;2023-08-21T06:19:28;22.27;;;20.08;;
62102;SDS011;48077;48.104;11.702;2023-08-21T06:21:51;16.50;;;15.05;;
62102;SDS011;48077;48.104;11.702;2023-08-21T06:24:15;15.88;;;14.40;;
62102;SDS011;48077;48.104;11.702;2023-08-21T06:26:38;15.60;;;13.75;;
62102;SDS011;48077;48.104;11.702;2023-08-21T06:29:01;18.63;;;16.90;;
62102;SDS011;48077;48.104;11.702;2023-08-21T06:31:25;16.40;;;14.40;;
62102;SDS011;48077;48.104;11.702;2023-08-21T06:33:48;15.65;;;14.23;;
62102;SDS011;48077;48.104;11.702;2023-08-21T06:36:11;15.27;;;13.00;;
62102;SDS011;48077;48.104;11.702;2023-08-21T06:38:35;15.20;;;12.52;;
62102;SDS011;48077;48.104;11.702;2023-08-21T06:40:58;19.20;;;16.00;;
62102;SDS011;48077;48.104;11.702;2023-08-21T06:43:21;15.82;;;12.13;;
62102;SDS011;48077;48.104;11.702;2023-08-21T06:45:45;16.17;;;14.50;;
62102;SDS011;48077;48.104;11.702;2023-08-21T06:48:08;19.42;;;15.18;;
62102;SDS011;48077;48.104;11.702;2023-08-21T06:50:31;16.85;;;14.20;;
62102;SDS011;48077;48.104;11.702;2023-08-21T06:52:55;13.23;;;11.30;;
62102;SDS011;48077;48.104;11.702;2023-08-21T06:55:18;13.05;;;10.73;;
62102;SDS011;48077;48.104;11.702;2023-08-21T06:57:42;11.85;;;10.60;;
62102;SDS011;48077;48.104;11.702;2023-08-21T07:00:05;12.80;;;10.93;;
62102;SDS011;48077;48.104;11.702;2023-08-21T07:02:29;16.33;;;12.68;;
62102;SDS011;48077;48.104;11.702;2023-08-21T07:04:52;15.18;;;10.48;;
62102;SDS011;48077;48.104;11.702;2023-08-21T07:07:16;13.55;;;10.15;;
62102;SDS011;48077;48.104;11.702;2023-08-21T07:09:39;11.77;;;10.55;;
62102;SDS011;48077;48.104;11.702;2023-08-21T07:12:02;18.55;;;12.55;;
62102;SDS011;48077;48.104;11.702;2023-08-21T07:14:26;14.90;;;12.70;;
62102;SDS011;48077;48.104;11.702;2023-08-21T07:16:49;17.92;;;11.02;;
62102;SDS011;48077;48.104;11.702;2023-08-21T07:19:13;12.10;;;10.40;;
62102;SDS011;48077;48.104;11.702;2023-08-21T07:21:36;15.93;;;10.10;;
62102;SDS011;48077;48.104;11.702;2023-08-21T07:24:04;15.30;;;9.82;;
62102;SDS011;48077;48.104;11.702;2023-08-21T07:26:28;13.95;;;11.73;;
62102;SDS011;48077;48.104;11.702;2023-08-21T07:28:51;12.68;;;9.48;;
62102;SDS011;48077;48.104;11.702;2023-08-21T07:31:16;14.25;;;9.48;;
62102;SDS011;48077;48.104;11.702;2023-08-21T07:33:39;16.73;;;9.70;;
62102;SDS011;48077;48.104;11.702;2023-08-21T07:36:03;16.08;;;12.65;;
62102;SDS011;48077;48.104;11.702;2023-08-21T07:38:27;13.30;;;10.05;;
62102;SDS011;48077;48.104;11.702;2023-08-21T07:40:51;14.32;;;10.88;;
62102;SDS011;48077;48.104;11.702;2023-08-21T07:43:14;11.50;;;9.27;;
62102;SDS011;48077;48.104;11.702;2023-08-21T07:45:38;12.45;;;9.15;;
62102;SDS011;48077;48.104;11.702;2023-08-21T07:48:01;12.48;;;9.55;;
62102;SDS011;48077;48.104;11.702;2023-08-21T07:50:25;11.95;;;8.77;;
62102;SDS011;48077;48.104;11.702;2023-08-21T07:52:48;12.00;;;9.27;;
62102;SDS011;48077;48.104;11.702;2023-08-21T07:55:12;14.80;;;11.73;;
62102;SDS011;48077;48.104;11.702;2023-08-21T07:57:35;10.30;;;8.63;;
62102;SDS011;48077;48.104;11.702;2023-08-21T07:59:59;10.15;;;8.77;;
62102;SDS011;48077;48.104;11.702;2023-08-21T08:02:23;12.63;;;8.88;;
62102;SDS011;48077;48.104;11.702;2023-08-21T08:04:46;17.23;;;11.95;;
62102;SDS011;48077;48.104;11.702;2023-08-21T08:07:10;12.38;;;9.63;;
62102;SDS011;48077;48.104;11.702;2023-08-21T08:09:33;11.15;;;9.02;;
62102;SDS011;48077;48.104;11.702;2023-08-21T08:11:56;13.68;;;9.73;;
62102;SDS011;48077;48.104;11.702;2023-08-21T08:14:20;13.07;;;9.18;;
62102;SDS011;48077;48.104;11.702;2023-08-21T08:16:43;11.73;;;9.75;;
62102;SDS011;48077;48.104;11.702;2023-08-21T08:19:07;10.18;;;9.00;;
62102;SDS011;48077;48.104;11.702;2023-08-21T08:21:30;10.50;;;8.73;;
62102;SDS011;48077;48.104;11.702;2023-08-21T08:23:54;11.00;;;8.88;;
62102;SDS011;48077;48.104;11.702;2023-08-21T08:26:17;9.25;;;8.30;;
62102;SDS011;48077;48.104;11.702;2023-08-21T08:28:40;11.05;;;7.90;;
62102;SDS011;48077;48.104;11.702;2023-08-21T08:31:04;11.10;;;8.70;;
62102;SDS011;48077;48.104;11.702;2023-08-21T08:33:27;10.48;;;8.73;;
62102;SDS011;48077;48.104;11.702;2023-08-21T08:35:50;12.93;;;9.05;;
62102;SDS011;48077;48.104;11.702;2023-08-21T08:38:14;13.82;;;9.88;;
62102;SDS011;48077;48.104;11.702;2023-08-21T08:40:42;11.93;;;9.25;;
62102;SDS011;48077;48.104;11.702;2023-08-21T08:43:06;12.40;;;9.13;;
62102;SDS011;48077;48.104;11.702;2023-08-21T08:45:30;10.82;;;8.38;;
62102;SDS011;48077;48.104;11.702;2023-08-21T08:47:54;12.77;;;8.60;;
62102;SDS011;48077;48.104;11.702;2023-08-21T08:50:18;10.52;;;8.52;;
62102;SDS011;48077;48.104;11.702;2023-08-21T08:52:42;10.82;;;8.43;;
62102;SDS011;48077;48.104;11.702;2023-08-21T08:55:07;14.85;;;9.52;;
62102;SDS011;48077;48.104;11.702;2023-08-21T08:57:31;10.32;;;8.73;;
62102;SDS011;48077;48.104;11.702;2023-08-21T08:59:54;12.60;;;10.23;;
62102;SDS011;48077;48.104;11.702;2023-08-21T09:02:17;13.73;;;9.70;;
62102;SDS011;48077;48.104;11.702;2023-08-21T09:04:41;14.43;;;9.60;;
62102;SDS011;48077;48.104;11.702;2023-08-21T09:07:07;13.40;;;9.40;;
62102;SDS011;48077;48.104;11.702;2023-08-21T09:09:45;9.93;;;7.82;;
62102;SDS011;48077;48.104;11.702;2023-08-21T09:12:10;14.43;;;9.15;;
62102;SDS011;48077;48.104;11.702;2023-08-21T09:14:35;16.02;;;10.32;;
62102;SDS011;48077;48.104;11.702;2023-08-21T09:17:01;11.18;;;8.60;;
62102;SDS011;48077;48.104;11.702;2023-08-21T09:19:28;13.13;;;9.63;;
62102;SDS011;48077;48.104;11.702;2023-08-21T09:21:51;11.65;;;8.93;;
62102;SDS011;48077;48.104;11.702;2023-08-21T09:24:14;9.35;;;8.07;;
62102;SDS011;48077;48.104;11.702;2023-08-21T09:26:38;14.25;;;8.85;;
62102;SDS011;48077;48.104;11.702;2023-08-21T09:29:03;9.90;;;8.15;;
62102;SDS011;48077;48.104;11.702;2023-08-21T09:31:31;9.30;;;8.10;;
62102;SDS011;48077;48.104;11.702;2023-08-21T09:33:59;11.88;;;9.07;;
62102;SDS011;48077;48.104;11.702;2023-08-21T09:36:29;11.55;;;8.93;;
62102;SDS011;48077;48.104;11.702;2023-08-21T09:38:53;11.40;;;8.50;;
62102;SDS011;48077;48.104;11.702;2023-08-21T09:41:18;11.73;;;9.93;;
62102;SDS011;48077;48.104;11.702;2023-08-21T09:43:43;12.50;;;8.90;;
62102;SDS011;48077;48.104;11.702;2023-08-21T09:46:06;9.23;;;8.10;;
62102;SDS011;48077;48.104;11.702;2023-08-21T09:48:29;9.25;;;7.78;;
62102;SDS011;48077;48.104;11.702;2023-08-21T09:50:54;11.48;;;9.32;;
62102;SDS011;48077;48.104;11.702;2023-08-21T09:53:22;13.07;;;8.63;;
62102;SDS011;48077;48.104;11.702;2023-08-21T09:55:46;10.47;;;8.57;;
62102;SDS011;48077;48.104;11.702;2023-08-21T09:58:10;12.10;;;7.88;;
62102;SDS011;48077;48.104;11.702;2023-08-21T10:00:34;9.57;;;8.00;;
62102;SDS011;48077;48.104;11.702;2023-08-21T10:03:01;14.43;;;9.13;;
62102;SDS011;48077;48.104;11.702;2023-08-21T10:05:26;10.43;;;8.10;;
62102;SDS011;48077;48.104;11.702;2023-08-21T10:07:50;11.35;;;8.82;;
62102;SDS011;48077;48.104;11.702;2023-08-21T10:10:14;16.45;;;10.02;;
62102;SDS011;48077;48.104;11.702;2023-08-21T10:12:38;10.15;;;7.88;;
62102;SDS011;48077;48.104;11.702;2023-08-21T10:15:01;12.90;;;8.90;;
62102;SDS011;48077;48.104;11.702;2023-08-21T10:17:25;12.95;;;8.70;;
62102;SDS011;48077;48.104;11.702;2023-08-21T10:19:52;9.18;;;8.27;;
62102;SDS011;48077;48.104;11.702;2023-08-21T10:22:17;14.02;;;8.73;;
62102;SDS011;48077;48.104;11.702;2023-08-21T10:25:01;12.75;;;9.73;;
62102;SDS011;48077;48.104;11.702;2023-08-21T10:27:30;10.50;;;8.55;;
62102;SDS011;48077;48.104;11.702;2023-08-21T10:29:57;9.35;;;8.05;;
62102;SDS011;48077;48.104;11.702;2023-08-21T10:32:22;13.45;;;9.63;;
62102;SDS011;48077;48.104;11.702;2023-08-21T10:34:45;9.63;;;8.55;;
62102;SDS011;48077;48.104;11.702;2023-08-21T10:37:15;13.88;;;10.07;;
62102;SDS011;48077;48.104;11.702;2023-08-21T10:39:44;8.88;;;7.95;;
62102;SDS011;48077;48.104;11.702;2023-08-21T10:42:17;13.05;;;9.13;;
62102;SDS011;48077;48.104;11.702;2023-08-21T10:47:21;9.60;;;8.30;;
62102;SDS011;48077;48.104;11.702;2023-08-21T10:49:47;9.27;;;8.07;;
62102;SDS011;48077;48.104;11.702;2023-08-21T10:52:13;11.23;;;9.20;;
62102;SDS011;48077;48.104;11.702;2023-08-21T10:54:44;9.23;;;7.53;;
62102;SDS011;48077;48.104;11.702;2023-08-21T10:57:08;11.85;;;8.10;;
62102;SDS011;48077;48.104;11.702;2023-08-21T10:59:31;11.23;;;8.35;;
62102;SDS011;48077;48.104;11.702;2023-08-21T11:01:55;13.43;;;9.38;;
62102;SDS011;48077;48.104;11.702;2023-08-21T11:04:18;11.68;;;9.35;;
62102;SDS011;48077;48.104;11.702;2023-08-21T11:06:41;9.85;;;7.53;;
62102;SDS011;48077;48.104;11.702;2023-08-21T11:09:05;9.43;;;7.93;;
62102;SDS011;48077;48.104;11.702;2023-08-21T11:11:35;12.73;;;9.23;;
62102;SDS011;48077;48.104;11.702;2023-08-21T11:13:58;12.52;;;9.23;;
62102;SDS011;48077;48.104;11.702;2023-08-21T11:16:21;11.75;;;8.10;;
62102;SDS011;48077;48.104;11.702;2023-08-21T11:18:45;8.35;;;7.13;;
62102;SDS011;48077;48.104;11.702;2023-08-21T11:21:09;10.13;;;7.90;;
62102;SDS011;48077;48.104;11.702;2023-08-21T11:23:34;11.93;;;9.02;;
62102;SDS011;48077;48.104;11.702;2023-08-21T11:26:04;9.45;;;7.82;;
62102;SDS011;48077;48.104;11.702;2023-08-21T11:28:29;11.82;;;9.35;;
62102;SDS011;48077;48.104;11.702;2023-08-21T11:30:54;9.07;;;8.10;;
62102;SDS011;48077;48.104;11.702;2023-08-21T11:33:18;10.10;;;8.23;;
62102;SDS011;48077;48.104;11.702;2023-08-21T11:35:42;14.85;;;9.02;;
62102;SDS011;48077;48.104;11.702;2023-08-21T11:38:05;9.40;;;8.25;;
62102;SDS011;48077;48.104;11.702;2023-08-21T11:40:29;11.68;;;8.45;;
62102;SDS011;48077;48.104;11.702;2023-08-21T11:42:52;11.13;;;8.10;;
62102;SDS011;48077;48.104;11.702;2023-08-21T11:45:23;13.05;;;7.93;;
62102;SDS011;48077;48.104;11.702;2023-08-21T11:47:48;9.82;;;8.07;;
62102;SDS011;48077;48.104;11.702;2023-08-21T11:50:12;12.70;;;8.07;;
62102;SDS011;48077;48.104;11.702;2023-08-21T11:52:38;8.57;;;7.47;;
62102;SDS011;48077;48.104;11.702;2023-08-21T11:55:01;11.80;;;7.53;;
62102;SDS011;48077;48.104;11.702;2023-08-21T11:57:25;12.95;;;8.63;;
62102;SDS011;48077;48.104;11.702;2023-08-21T11:59:49;8.73;;;7.47;;
62102;SDS011;48077;48.104;11.702;2023-08-21T12:02:16;7.68;;;6.95;;
62102;SDS011;48077;48.104;11.702;2023-08-21T12:04:51;7.57;;;6.90;;
62102;SDS011;48077;48.104;11.702;2023-08-21T12:07:15;9.95;;;7.85;;
62102;SDS011;48077;48.104;11.702;2023-08-21T12:09:39;8.43;;;7.22;;
62102;SDS011;48077;48.104;11.702;2023-08-21T12:12:09;10.50;;;7.35;;
62102;SDS011;48077;48.104;11.702;2023-08-21T12:14:32;15.15;;;8.60;;
62102;SDS011;48077;48.104;11.702;2023-08-21T12:16:56;10.48;;;8.68;;
62102;SDS011;48077;48.104;11.702;2023-08-21T12:19:19;9.90;;;7.28;;
62102;SDS011;48077;48.104;11.702;2023-08-21T12:21:44;8.73;;;7.05;;
62102;SDS011;48077;48.104;11.702;2023-08-21T12:24:08;13.45;;;8.10;;
62102;SDS011;48077;48.104;11.702;2023-08-21T12:26:31;10.25;;;7.47;;
62102;SDS011;48077;48.104;11.702;2023-08-21T12:32:15;10.23;;;8.02;;
62102;SDS011;48077;48.104;11.702;2023-08-21T12:34:39;11.13;;;7.97;;
62102;SDS011;48077;48.104;11.702;2023-08-21T12:37:03;10.13;;;7.13;;
62102;SDS011;48077;48.104;11.702;2023-08-21T12:39:26;8.38;;;7.07;;
62102;SDS011;48077;48.104;11.702;2023-08-21T12:41:49;8.52;;;7.45;;
62102;SDS011;48077;48.104;11.702;2023-08-21T12:44:13;8.02;;;7.22;;
62102;SDS011;48077;48.104;11.702;2023-08-21T12:46:36;8.57;;;7.07;;
62102;SDS011;48077;48.104;11.702;2023-08-21T12:49:00;9.43;;;6.90;;
62102;SDS011;48077;48.104;11.702;2023-08-21T12:51:24;9.90;;;7.22;;
62102;SDS011;48077;48.104;11.702;2023-08-21T12:53:47;9.30;;;7.65;;
62102;SDS011;48077;48.104;11.702;2023-08-21T12:56:11;8.65;;;7.38;;
62102;SDS011;48077;48.104;11.702;2023-08-21T12:58:34;8.45;;;7.22;;
62102;SDS011;48077;48.104;11.702;2023-08-21T13:00:57;10.57;;;8.18;;
62102;SDS011;48077;48.104;11.702;2023-08-21T13:03:21;9.45;;;7.28;;
62102;SDS011;48077;48.104;11.702;2023-08-21T13:05:44;9.85;;;6.82;;
62102;SDS011;48077;48.104;11.702;2023-08-21T13:08:07;10.20;;;7.78;;
62102;SDS011;48077;48.104;11.702;2023-08-21T13:10:31;12.95;;;7.78;;
62102;SDS011;48077;48.104;11.702;2023-08-21T13:12:54;10.52;;;7.57;;
62102;SDS011;48077;48.104;11.702;2023-08-21T13:15:18;10.80;;;8.68;;
62102;SDS011;48077;48.104;11.702;2023-08-21T13:17:41;8.23;;;6.97;;
62102;SDS011;48077;48.104;11.702;2023-08-21T13:20:06;8.02;;;7.15;;
62102;SDS011;48077;48.104;11.702;2023-08-21T13:22:44;9.90;;;7.53;;
62102;SDS011;48077;48.104;11.702;2023-08-21T13:25:09;9.50;;;8.02;;
62102;SDS011;48077;48.104;11.702;2023-08-21T13:27:32;8.68;;;6.72;;
62102;SDS011;48077;48.104;11.702;2023-08-21T13:29:55;11.15;;;7.90;;
62102;SDS011;48077;48.104;11.702;2023-08-21T13:32:19;10.85;;;7.47;;
62102;SDS011;48077;48.104;11.702;2023-08-21T13:34:42;10.25;;;7.97;;
62102;SDS011;48077;48.104;11.702;2023-08-21T13:37:05;8.00;;;7.28;;
62102;SDS011;48077;48.104;11.702;2023-08-21T13:39:29;11.88;;;7.40;;
62102;SDS011;48077;48.104;11.702;2023-08-21T13:41:53;9.73;;;7.05;;
62102;SDS011;48077;48.104;11.702;2023-08-21T13:44:17;7.78;;;7.07;;
62102;SDS011;48077;48.104;11.702;2023-08-21T13:46:40;10.18;;;7.82;;
62102;SDS011;48077;48.104;11.702;2023-08-21T13:49:04;10.65;;;8.00;;
62102;SDS011;48077;48.104;11.702;2023-08-21T13:51:29;10.93;;;8.60;;
62102;SDS011;48077;48.104;11.702;2023-08-21T13:53:53;8.57;;;7.57;;
62102;SDS011;48077;48.104;11.702;2023-08-21T13:56:16;8.40;;;7.60;;
62102;SDS011;48077;48.104;11.702;2023-08-21T13:58:39;8.77;;;7.65;;
62102;SDS011;48077;48.104;11.702;2023-08-21T14:01:03;13.48;;;8.50;;
62102;SDS011;48077;48.104;11.702;2023-08-21T14:03:26;11.70;;;8.10;;
62102;SDS011;48077;48.104;11.702;2023-08-21T14:05:50;10.88;;;7.65;;
62102;SDS011;48077;48.104;11.702;2023-08-21T14:08:13;14.70;;;8.57;;
62102;SDS011;48077;48.104;11.702;2023-08-21T14:10:36;8.93;;;6.97;;
62102;SDS011;48077;48.104;11.702;2023-08-21T14:13:00;7.32;;;6.55;;
62102;SDS011;48077;48.104;11.702;2023-08-21T14:15:26;10.35;;;8.02;;
62102;SDS011;48077;48.104;11.702;2023-08-21T14:17:49;7.72;;;6.85;;